Time;durP1;ratioP1;P1;durP2;ratioP2;P2;SDS_P1;SDS_P2;PMS_P1;PMS_P2;Temp;Humidity;BMP_temperature;BMP_pressure;BME280_temperature;BME280_humidity;BME280_pressure;Samples;Min_cycle;Max_cycle;Signal;HPM_P1;HPM_P2
2022/02/24 00:01:43;;;;;;;8.38;3.90;;;4.60;99.90;;;;;;5033276;28;20029;-89
2022/02/24 00:04:09;;;;;;;8.27;4.32;;;4.70;99.90;;;;;;5032585;28;20033;-89
2022/02/24 00:06:37;;;;;;;5.50;3.95;;;4.80;99.90;;;;;;5032495;28;20601;-88
2022/02/24 00:09:04;;;;;;;9.85;4.80;;;5.00;99.90;;;;;;5026422;28;20049;-89
2022/02/24 00:11:32;;;;;;;9.93;4.30;;;5.10;99.90;;;;;;5034707;28;20373;-89
2022/02/24 00:13:58;;;;;;;12.90;6.20;;;5.10;99.90;;;;;;5018792;28;20116;-90
2022/02/24 00:16:37;;;;;;;9.15;4.90;;;5.10;99.90;;;;;;5032420;28;20626;-89
2022/02/24 00:19:26;;;;;;;10.52;4.82;;;5.10;99.90;;;;;;5024813;28;20017;-89
2022/02/24 00:22:00;;;;;;;7.18;4.75;;;5.20;99.90;;;;;;5019549;28;20133;-93
2022/02/24 00:24:26;;;;;;;7.57;4.43;;;5.20;99.90;;;;;;5032268;28;20112;-89
2022/02/24 00:27:00;;;;;;;9.60;4.97;;;5.20;99.90;;;;;;5032233;28;20124;-91
2022/02/24 00:29:32;;;;;;;8.65;4.43;;;5.30;99.90;;;;;;5031639;28;20018;-90
2022/02/24 00:31:58;;;;;;;10.35;3.75;;;5.30;99.90;;;;;;5037059;28;20029;-90
2022/02/24 00:34:39;;;;;;;8.93;4.22;;;5.30;99.90;;;;;;5031927;28;20025;-90
2022/02/24 00:37:40;;;;;;;6.90;3.28;;;5.40;99.90;;;;;;5006546;28;20136;-89
2022/02/24 00:40:18;;;;;;;5.53;3.38;;;5.40;99.90;;;;;;5023208;28;20034;-90
2022/02/24 00:42:56;;;;;;;6.72;3.58;;;5.50;99.90;;;;;;5015306;28;20495;-90
2022/02/24 00:48:37;;;;;;;;;;;;;;;;;;;;;
2022/02/24 00:51:32;;;;;;;5.65;2.60;;;5.80;99.90;;;;;;5032239;28;20040;-90
2022/02/24 00:54:44;;;;;;;5.20;2.67;;;5.90;99.90;;;;;;5030998;28;20033;-91
2022/02/24 00:57:47;;;;;;;3.78;2.72;;;5.90;99.90;;;;;;4916658;29;20027;-90
2022/02/24 01:07:27;;;;;;;4.95;2.70;;;6.00;99.90;;;;;;5009473;28;20049;-90
2022/02/24 01:10:07;;;;;;;;;;;6.00;99.90;;;;;;5014159;28;20068;-90
2022/02/24 01:12:39;;;;;;;6.30;2.95;;;6.10;99.90;;;;;;5012593;28;19916;-89
2022/02/24 01:15:11;;;;;;;4.07;2.90;;;6.10;99.90;;;;;;5011058;28;20056;-90
2022/02/24 01:17:40;;;;;;;5.15;2.85;;;6.10;99.90;;;;;;5012105;28;20045;-88
2022/02/24 01:20:41;;;;;;;6.07;3.10;;;6.20;99.90;;;;;;5011066;28;20033;-88
2022/02/24 01:23:23;;;;;;;5.55;3.13;;;6.20;99.90;;;;;;5011479;28;20022;-90
2022/02/24 01:25:49;;;;;;;;;;;6.20;99.90;;;;;;5011187;28;20018;-88
2022/02/24 01:28:44;;;;;;;9.63;3.00;;;6.20;99.90;;;;;;5012510;28;19913;-88
2022/02/24 01:31:17;;;;;;;7.97;3.45;;;6.30;99.90;;;;;;4993010;28;20030;-89
2022/02/24 01:33:48;;;;;;;4.43;2.80;;;6.30;99.90;;;;;;5012193;28;20037;-89
2022/02/24 01:36:14;;;;;;;4.53;3.30;;;6.30;99.90;;;;;;5011398;28;20026;-89
2022/02/24 01:39:00;;;;;;;7.72;2.90;;;6.30;99.90;;;;;;5012239;28;20026;-89
2022/02/24 01:41:26;;;;;;;3.42;2.70;;;6.30;99.90;;;;;;5010720;28;20030;-88
2022/02/24 01:43:52;;;;;;;4.50;2.80;;;6.20;99.90;;;;;;4994906;28;20033;-89
2022/02/24 02:00:35;;;;;;;8.05;4.63;;;6.40;99.90;;;;;;4874928;29;20043;-89
2022/02/24 02:25:06;;;;;;;11.02;5.68;;;6.60;99.90;;;;;;4725229;30;20064;-88
2022/02/24 02:27:32;;;;;;;10.48;5.50;;;6.60;99.90;;;;;;4728307;30;20056;-89
2022/02/24 02:30:42;;;;;;;10.52;5.75;;;6.70;99.90;;;;;;4739941;30;20054;-88
2022/02/24 02:43:53;;;;;;;7.63;4.15;;;6.80;99.90;;;;;;4725149;30;20095;-89
2022/02/24 02:46:19;;;;;;;29.45;14.00;;;6.80;99.90;;;;;;4704436;30;20139;-89
2022/02/24 02:48:44;;;;;;;79.45;37.65;;;6.70;99.90;;;;;;4724202;30;20136;-88
2022/02/24 02:51:11;;;;;;;45.33;19.95;;;6.60;99.90;;;;;;4900361;28;20069;-90
2022/02/24 02:53:37;;;;;;;24.52;11.00;;;6.50;99.90;;;;;;4971399;28;20034;-90
2022/02/24 02:56:03;;;;;;;20.20;10.38;;;6.40;99.90;;;;;;4954161;28;20035;-90
2022/02/24 02:58:32;;;;;;;5.47;3.58;;;6.30;99.90;;;;;;4971227;28;20126;-89
2022/02/24 03:00:58;;;;;;;7.63;3.90;;;6.20;99.90;;;;;;4972036;28;20073;-91
2022/02/24 03:03:24;;;;;;;4.53;3.00;;;6.00;99.90;;;;;;4955793;28;20118;-90
2022/02/24 03:05:51;;;;;;;3.70;2.90;;;5.90;99.90;;;;;;4970769;28;20031;-90
2022/02/24 03:08:18;;;;;;;4.68;3.30;;;5.80;99.90;;;;;;4954877;28;20482;-90
2022/02/24 03:10:47;;;;;;;6.53;3.22;;;5.70;99.90;;;;;;4970985;28;20027;-90
2022/02/24 03:13:13;;;;;;;5.75;3.60;;;5.60;99.90;;;;;;4955153;28;20450;-90
2022/02/24 03:15:40;;;;;;;8.65;4.88;;;5.50;99.90;;;;;;4988882;28;20117;-91
2022/02/24 03:18:06;;;;;;;6.15;3.67;;;5.40;99.90;;;;;;4990592;28;20030;-90
2022/02/24 03:20:32;;;;;;;10.45;3.83;;;5.30;99.90;;;;;;4990248;28;20109;-89
2022/02/24 03:23:00;;;;;;;5.18;3.33;;;5.30;99.90;;;;;;4974240;28;20031;-90
2022/02/24 03:25:32;;;;;;;4.78;2.92;;;5.20;99.90;;;;;;4989363;28;20119;-88
2022/02/24 03:27:58;;;;;;;5.82;2.70;;;5.20;99.90;;;;;;4990848;28;20481;-89
2022/02/24 03:30:25;;;;;;;6.63;2.75;;;5.10;99.90;;;;;;4990410;28;20049;-90
2022/02/24 03:32:51;;;;;;;3.72;2.88;;;5.10;99.90;;;;;;5009249;28;20413;-89
2022/02/24 03:35:19;;;;;;;3.95;2.85;;;5.00;99.90;;;;;;4994709;28;20042;-89
2022/02/24 03:37:47;;;;;;;6.30;2.97;;;5.00;99.90;;;;;;5009277;28;20646;-89
2022/02/24 03:40:23;;;;;;;7.63;3.03;;;4.90;99.90;;;;;;4994458;28;20048;-88
2022/02/24 03:42:50;;;;;;;4.82;2.70;;;4.90;99.90;;;;;;5009258;28;20026;-89
2022/02/24 03:45:16;;;;;;;5.95;2.83;;;4.80;99.90;;;;;;5009725;28;20474;-89
2022/02/24 03:47:43;;;;;;;4.38;2.90;;;4.80;99.90;;;;;;4995009;28;20113;-90
2022/02/24 03:50:11;;;;;;;6.55;2.92;;;4.70;99.90;;;;;;5009491;28;20034;-90
2022/02/24 03:52:40;;;;;;;5.00;2.85;;;4.60;99.90;;;;;;4994586;28;20053;-89
2022/02/24 03:55:12;;;;;;;3.92;2.42;;;4.60;99.90;;;;;;4999555;28;20117;-89
2022/02/24 03:57:44;;;;;;;4.40;2.67;;;4.60;99.90;;;;;;4994232;28;20069;-88
2022/02/24 04:00:15;;;;;;;4.57;2.50;;;4.50;99.90;;;;;;4985071;28;20097;-88
2022/02/24 04:03:01;;;;;;;6.80;2.78;;;4.50;99.90;;;;;;4977163;28;20508;-90
2022/02/24 04:05:38;;;;;;;5.60;2.67;;;4.50;99.90;;;;;;4976683;28;20459;-91
2022/02/24 04:08:19;;;;;;;4.95;2.75;;;4.60;99.90;;;;;;5007273;28;20121;-91
2022/02/24 04:10:55;;;;;;;4.55;2.17;;;4.70;99.90;;;;;;4997214;28;20025;-91
2022/02/24 04:13:25;;;;;;;5.75;2.50;;;4.80;99.90;;;;;;5010285;28;20030;-90
2022/02/24 04:15:51;;;;;;;3.53;2.53;;;4.80;99.90;;;;;;5013012;28;20472;-91
2022/02/24 04:18:16;;;;;;;3.22;2.40;;;4.80;99.90;;;;;;5013840;28;20068;-89
2022/02/24 04:20:46;;;;;;;4.47;2.35;;;4.70;99.90;;;;;;5012147;28;20025;-90
2022/02/24 04:23:13;;;;;;;4.97;2.55;;;4.70;99.90;;;;;;5012507;28;20070;-89
2022/02/24 04:25:39;;;;;;;3.30;2.45;;;4.80;99.90;;;;;;4995559;28;20112;-88
2022/02/24 04:28:39;;;;;;;5.28;2.17;;;4.80;99.90;;;;;;4995891;28;20037;-90
2022/02/24 04:31:10;;;;;;;3.40;2.22;;;4.80;99.90;;;;;;4995371;28;20041;-89
2022/02/24 04:33:45;;;;;;;3.50;2.30;;;4.80;99.90;;;;;;4995737;28;20484;-90
2022/02/24 04:36:34;;;;;;;2.88;2.10;;;4.70;99.90;;;;;;5011258;28;20038;-89
2022/02/24 04:39:22;;;;;;;4.53;2.90;;;4.70;99.90;;;;;;5012238;28;20465;-89
2022/02/24 04:41:57;;;;;;;5.72;3.15;;;4.80;99.90;;;;;;4990438;28;20045;-90
2022/02/24 04:44:39;;;;;;;8.35;2.97;;;5.00;99.90;;;;;;5011988;28;20064;-90
2022/02/24 04:47:14;;;;;;;4.72;2.50;;;5.00;99.90;;;;;;5011989;28;20592;-90
2022/02/24 04:50:00;;;;;;;4.72;2.92;;;5.10;99.90;;;;;;5011862;28;20030;-89
2022/02/24 04:52:38;;;;;;;14.63;5.05;;;5.10;99.90;;;;;;5006718;28;20488;-90
2022/02/24 04:55:30;;;;;;;;;;;;;;;;;;;;;
2022/02/24 04:58:01;;;;;;;11.27;4.97;;;5.20;99.90;;;;;;5012902;28;20026;-90
2022/02/24 05:00:27;;;;;;;18.23;5.75;;;5.30;99.90;;;;;;5011461;28;20026;-90
2022/02/24 05:02:53;;;;;;;10.82;5.20;;;5.30;99.90;;;;;;5013007;28;20053;-90
2022/02/24 05:05:19;;;;;;;10.80;4.50;;;5.20;99.90;;;;;;5011579;28;20054;-90
2022/02/24 05:07:51;;;;;;;10.90;4.50;;;5.10;99.90;;;;;;5012718;28;20602;-91
2022/02/24 05:10:23;;;;;;;5.20;3.17;;;5.00;99.90;;;;;;5013616;28;20030;-90
2022/02/24 05:12:51;;;;;;;6.93;2.80;;;4.90;99.90;;;;;;5012153;28;20026;-90
2022/02/24 05:15:17;;;;;;;6.05;2.67;;;4.70;99.90;;;;;;5011851;28;20629;-90
2022/02/24 05:17:49;;;;;;;6.07;3.25;;;4.70;99.90;;;;;;5011935;28;20038;-90
2022/02/24 05:20:22;;;;;;;7.75;3.30;;;4.60;99.90;;;;;;4995355;28;20482;-91
2022/02/24 05:22:51;;;;;;;5.78;3.47;;;4.50;99.90;;;;;;5012997;28;20120;-90
2022/02/24 05:25:27;;;;;;;5.45;3.55;;;4.50;99.90;;;;;;5012531;28;20543;-90
2022/02/24 05:27:55;;;;;;;6.15;2.55;;;4.40;99.90;;;;;;5014144;28;20612;-92
2022/02/24 05:30:21;;;;;;;8.98;2.70;;;4.40;99.90;;;;;;5013622;28;20026;-89
2022/02/24 05:32:50;;;;;;;8.60;2.95;;;4.40;99.90;;;;;;4996916;28;20026;-91
2022/02/24 05:35:16;;;;;;;4.15;2.20;;;4.40;99.90;;;;;;5013437;28;20037;-89
2022/02/24 05:37:42;;;;;;;5.80;2.67;;;4.40;99.90;;;;;;5013570;28;20037;-91
2022/02/24 05:40:11;;;;;;;5.22;2.95;;;4.40;99.90;;;;;;5013655;28;20025;-91
2022/02/24 05:43:07;;;;;;;5.00;2.92;;;4.40;99.90;;;;;;5029472;28;20037;-91
2022/02/24 05:45:43;;;;;;;5.20;2.70;;;4.30;99.90;;;;;;5018507;28;20038;-90
2022/02/24 05:48:15;;;;;;;3.90;2.33;;;4.30;99.90;;;;;;5013775;28;20029;-91
2022/02/24 05:50:43;;;;;;;4.68;2.42;;;4.30;99.90;;;;;;5014981;28;20428;-91
2022/02/24 05:53:09;;;;;;;4.70;2.28;;;4.30;99.90;;;;;;5016294;28;20034;-92
2022/02/24 05:55:44;;;;;;;4.78;2.40;;;4.30;99.90;;;;;;4999801;28;21093;-91
2022/02/24 05:58:09;;;;;;;5.40;2.42;;;4.30;99.90;;;;;;5013693;28;20054;-91
2022/02/24 06:00:49;;;;;;;6.00;2.47;;;4.40;99.90;;;;;;5013178;28;20415;-91
2022/02/24 06:03:15;;;;;;;4.07;2.30;;;4.40;99.90;;;;;;5011429;28;20033;-92
2022/02/24 06:05:43;;;;;;;6.70;2.60;;;4.50;99.90;;;;;;5013280;28;20045;-92
2022/02/24 06:08:12;;;;;;;3.58;2.15;;;4.50;99.90;;;;;;5013287;28;20527;-92
2022/02/24 06:10:41;;;;;;;9.05;2.30;;;4.50;99.90;;;;;;5017472;28;20022;-92
2022/02/24 06:13:13;;;;;;;4.40;2.50;;;4.60;99.90;;;;;;5019801;28;20037;-92
2022/02/24 06:15:39;;;;;;;4.32;2.35;;;4.60;99.90;;;;;;4998092;28;20041;-92
2022/02/24 06:18:12;;;;;;;7.60;2.35;;;4.60;99.90;;;;;;5017201;28;20068;-92
2022/02/24 06:20:39;;;;;;;6.60;2.83;;;4.60;99.90;;;;;;5001852;28;20044;-91
2022/02/24 06:23:04;;;;;;;7.13;2.67;;;4.70;99.90;;;;;;5000979;28;20109;-92
2022/02/24 06:25:30;;;;;;;6.28;2.55;;;4.80;99.90;;;;;;5015088;28;20492;-91
2022/02/24 06:27:58;;;;;;;4.75;2.65;;;4.90;99.90;;;;;;5013985;28;20057;-90
2022/02/24 06:30:24;;;;;;;4.88;2.53;;;4.90;99.90;;;;;;4999296;28;20030;-91
2022/02/24 06:32:53;;;;;;;4.65;2.85;;;5.10;99.90;;;;;;5014816;28;20084;-90
2022/02/24 06:35:19;;;;;;;5.15;2.70;;;5.10;99.90;;;;;;5015491;28;20026;-91
2022/02/24 06:37:45;;;;;;;6.00;3.33;;;5.10;99.90;;;;;;5015594;28;20456;-91
2022/02/24 06:40:18;;;;;;;7.43;3.72;;;5.20;99.90;;;;;;5014116;28;20025;-91
2022/02/24 06:42:44;;;;;;;7.25;3.20;;;5.30;99.90;;;;;;5015131;28;20033;-92
2022/02/24 06:45:13;;;;;;;4.35;3.05;;;5.30;99.90;;;;;;5014215;28;20037;-91
2022/02/24 06:47:39;;;;;;;4.82;3.67;;;5.40;99.90;;;;;;5017352;28;20026;-91
2022/02/24 06:50:06;;;;;;;6.65;3.53;;;5.50;99.90;;;;;;5015640;28;20053;-91
2022/02/24 06:52:32;;;;;;;5.25;3.05;;;5.60;99.90;;;;;;5001065;28;20031;-91
2022/02/24 06:54:58;;;;;;;4.70;3.13;;;5.70;99.90;;;;;;5014612;28;20054;-91
2022/02/24 06:57:24;;;;;;;4.85;2.92;;;5.80;99.90;;;;;;5014421;28;20037;-90
2022/02/24 06:59:50;;;;;;;7.45;3.00;;;5.90;99.90;;;;;;5011425;28;20072;-92
2022/02/24 07:02:21;;;;;;;9.50;2.97;;;6.00;99.90;;;;;;5012261;28;20030;-90
2022/02/24 07:04:50;;;;;;;4.18;2.58;;;6.10;99.90;;;;;;4996296;28;20018;-88
2022/02/24 07:08:04;;;;;;;7.32;3.28;;;6.10;99.90;;;;;;5017403;28;20022;-90
2022/02/24 07:10:23;;;;;;;;;;;;;;;;;;;;;
2022/02/24 07:13:13;;;;;;;7.78;3.00;;;6.30;99.90;;;;;;5021034;28;20113;-88
2022/02/24 07:16:00;;;;;;;4.20;2.63;;;6.40;99.90;;;;;;5004233;28;20050;-89
2022/02/24 07:18:26;;;;;;;3.63;2.30;;;6.50;99.90;;;;;;5003442;28;20451;-89
2022/02/24 07:21:15;;;;;;;5.57;2.85;;;6.60;99.90;;;;;;5015862;28;20067;-89
2022/02/24 07:23:43;;;;;;;5.45;2.80;;;6.70;99.90;;;;;;5015312;28;20037;-87
2022/02/24 07:26:15;;;;;;;6.35;2.53;;;6.70;99.90;;;;;;5016097;28;20034;-90
2022/02/24 07:29:04;;;;;;;6.53;3.20;;;6.90;99.90;;;;;;5016344;28;20176;-89
2022/02/24 07:31:30;;;;;;;8.70;3.38;;;7.00;99.90;;;;;;4998513;28;20045;-89
2022/02/24 07:33:58;;;;;;;10.02;3.13;;;7.10;99.90;;;;;;4999343;28;20030;-88
2022/02/24 07:36:50;;;;;;;8.75;3.10;;;7.30;99.90;;;;;;4997308;28;20080;-87
2022/02/24 07:39:20;;;;;;;6.70;3.08;;;7.60;99.90;;;;;;5002015;28;20033;-89
2022/02/24 07:41:54;;;;;;;7.93;2.95;;;7.80;99.90;;;;;;5016908;28;20620;-90
2022/02/24 07:44:20;;;;;;;11.10;3.40;;;8.00;99.90;;;;;;5014545;28;20049;-86
2022/02/24 07:46:49;;;;;;;5.13;2.70;;;8.10;99.90;;;;;;5000373;28;20504;-85
2022/02/24 07:49:15;;;;;;;4.25;2.55;;;8.30;99.90;;;;;;5015146;28;20032;-83
2022/02/24 07:51:47;;;;;;;6.85;3.58;;;8.50;99.90;;;;;;5016490;28;20085;-88
2022/02/24 07:54:16;;;;;;;12.65;4.20;;;8.70;99.90;;;;;;4997235;28;20044;-88
2022/02/24 07:56:41;;;;;;;8.88;4.97;;;8.90;99.90;;;;;;5000235;28;20543;-85
2022/02/24 07:59:10;;;;;;;8.63;4.80;;;9.00;99.90;;;;;;5013918;28;20038;-84
2022/02/24 08:01:39;;;;;;;11.57;4.18;;;9.10;99.90;;;;;;5010939;28;20030;-84
2022/02/24 08:04:04;;;;;;;6.13;3.30;;;9.20;99.90;;;;;;5003344;28;20068;-82
2022/02/24 08:06:31;;;;;;;5.82;2.97;;;9.40;99.90;;;;;;5011732;28;20062;-83
2022/02/24 08:09:00;;;;;;;15.48;4.95;;;9.50;99.90;;;;;;5011742;28;20022;-82
2022/02/24 08:11:25;;;;;;;20.13;6.65;;;9.80;99.90;;;;;;4993504;28;20125;-84
2022/02/24 08:13:51;;;;;;;27.05;9.95;;;9.90;99.90;;;;;;5011506;28;20462;-83
2022/02/24 08:16:17;;;;;;;40.67;13.57;;;10.00;99.90;;;;;;5012263;28;20053;-83
2022/02/24 08:18:43;;;;;;;36.47;12.07;;;10.10;99.90;;;;;;4994906;28;20037;-84
2022/02/24 08:21:08;;;;;;;12.57;6.75;;;10.00;99.90;;;;;;5010826;28;20030;-83
2022/02/24 08:23:34;;;;;;;13.20;6.18;;;10.20;99.90;;;;;;5011605;28;20026;-84
2022/02/24 08:26:03;;;;;;;18.23;8.18;;;10.20;99.90;;;;;;5010526;28;20014;-83
2022/02/24 08:28:29;;;;;;;17.45;8.27;;;10.30;99.90;;;;;;5011943;28;20034;-83
2022/02/24 08:31:08;;;;;;;30.65;9.82;;;10.30;99.90;;;;;;5010848;28;20022;-83
2022/02/24 08:33:38;;;;;;;19.20;8.60;;;10.30;99.90;;;;;;5011341;28;20071;-83
2022/02/24 08:36:04;;;;;;;18.20;7.80;;;10.30;99.90;;;;;;5011769;28;20472;-84
2022/02/24 08:38:38;;;;;;;14.18;6.82;;;10.20;99.90;;;;;;5008850;28;20037;-83
2022/02/24 08:41:07;;;;;;;26.85;8.05;;;10.30;99.90;;;;;;5012224;28;20018;-83
2022/02/24 08:43:33;;;;;;;28.33;7.75;;;10.30;99.90;;;;;;5012970;28;20109;-83
2022/02/24 08:45:59;;;;;;;18.10;7.72;;;10.30;99.90;;;;;;5012155;28;20583;-83
2022/02/24 08:48:25;;;;;;;24.05;8.25;;;10.40;99.90;;;;;;5011408;28;20033;-84
2022/02/24 08:50:50;;;;;;;15.68;6.95;;;10.50;99.90;;;;;;5011646;28;20026;-83
2022/02/24 08:53:19;;;;;;;10.30;6.18;;;10.50;99.90;;;;;;5011557;28;20030;-83
2022/02/24 08:55:45;;;;;;;22.70;7.43;;;10.60;99.90;;;;;;4994415;28;20061;-83
2022/02/24 08:58:11;;;;;;;7.50;4.90;;;10.70;99.90;;;;;;5012599;28;20123;-83
2022/02/24 09:00:40;;;;;;;10.40;5.65;;;10.80;99.90;;;;;;5010987;28;20018;-84
2022/02/24 09:03:05;;;;;;;15.40;6.43;;;10.80;99.90;;;;;;5012342;28;20180;-84
2022/02/24 09:05:31;;;;;;;28.30;6.97;;;10.90;99.90;;;;;;5011995;28;20544;-83
2022/02/24 09:08:00;;;;;;;11.82;6.45;;;11.00;99.90;;;;;;5012245;28;20034;-84
2022/02/24 09:10:29;;;;;;;10.30;6.18;;;11.20;99.90;;;;;;5010185;28;20038;-84
2022/02/24 09:12:55;;;;;;;16.63;6.60;;;11.30;99.90;;;;;;5012013;28;20123;-83
2022/02/24 09:15:21;;;;;;;14.82;8.35;;;11.40;99.90;;;;;;5011787;28;20511;-84
2022/02/24 09:17:49;;;;;;;14.38;6.47;;;11.40;99.90;;;;;;4994280;28;20038;-84
2022/02/24 09:20:15;;;;;;;19.60;6.50;;;11.50;99.90;;;;;;5011597;28;20049;-84
2022/02/24 09:22:50;;;;;;;10.35;5.90;;;11.40;99.90;;;;;;4993252;28;20037;-84
2022/02/24 09:25:19;;;;;;;14.57;6.53;;;11.50;99.90;;;;;;5011669;28;20681;-84
2022/02/24 09:27:45;;;;;;;15.13;6.72;;;11.50;99.90;;;;;;5011285;28;20041;-83
2022/02/24 09:30:11;;;;;;;11.55;6.38;;;11.60;99.90;;;;;;5010399;28;20030;-82
2022/02/24 09:32:37;;;;;;;18.73;7.40;;;11.60;99.90;;;;;;5011633;28;20469;-83
2022/02/24 09:35:07;;;;;;;17.15;6.65;;;11.50;99.90;;;;;;4993808;28;20112;-84
2022/02/24 09:37:34;;;;;;;12.60;6.15;;;11.40;99.90;;;;;;5008696;28;20042;-83
2022/02/24 09:43:11;;;;;;;11.52;6.05;;;11.20;99.90;;;;;;5007312;28;20042;-84
2022/02/24 09:45:42;;;;;;;11.80;5.30;;;11.20;99.90;;;;;;5009675;28;20026;-84
2022/02/24 09:48:10;;;;;;;18.23;5.57;;;11.20;99.90;;;;;;5009524;28;20028;-83
2022/02/24 09:50:37;;;;;;;9.40;4.55;;;11.30;99.90;;;;;;5008953;28;20049;-84
2022/02/24 09:53:09;;;;;;;9.48;4.90;;;11.30;99.90;;;;;;5010725;28;20112;-84
2022/02/24 09:55:38;;;;;;;10.05;5.35;;;11.40;99.90;;;;;;4993233;28;20116;-84
2022/02/24 09:58:14;;;;;;;8.02;5.28;;;11.40;99.90;;;;;;5011412;28;20045;-83
2022/02/24 10:00:40;;;;;;;10.07;5.07;;;11.50;99.90;;;;;;5010647;28;20018;-83
2022/02/24 10:03:40;;;;;;;7.18;4.75;;;11.60;99.90;;;;;;5010894;28;20028;-84
2022/02/24 10:06:16;;;;;;;12.82;4.80;;;11.60;99.90;;;;;;5010963;28;20021;-83
2022/02/24 10:08:49;;;;;;;6.32;3.75;;;11.60;99.90;;;;;;5011086;28;20022;-84
2022/02/24 10:11:23;;;;;;;8.73;4.50;;;11.60;99.90;;;;;;5010541;28;20064;-84
2022/02/24 10:14:01;;;;;;;11.90;4.40;;;11.70;99.90;;;;;;5010969;28;20149;-84
2022/02/24 10:16:29;;;;;;;10.48;4.82;;;11.80;99.90;;;;;;5010100;28;20160;-84
2022/02/24 10:18:55;;;;;;;12.93;5.22;;;11.90;99.90;;;;;;4993343;28;20030;-84
2022/02/24 10:21:30;;;;;;;18.20;6.30;;;11.90;99.90;;;;;;5009525;28;20018;-83
2022/02/24 10:23:56;;;;;;;15.85;7.13;;;11.90;99.90;;;;;;5010343;28;20030;-83
2022/02/24 10:26:57;;;;;;;17.13;7.13;;;12.00;99.90;;;;;;4993310;28;20033;-84
2022/02/24 10:29:25;;;;;;;33.45;9.40;;;12.00;99.90;;;;;;5005166;28;20473;-84
2022/02/24 10:31:54;;;;;;;34.70;11.35;;;12.10;99.90;;;;;;4993143;28;20034;-83
2022/02/24 10:34:47;;;;;;;27.58;10.13;;;12.10;99.90;;;;;;5010724;28;21125;-84
2022/02/24 10:37:23;;;;;;;23.48;8.80;;;12.10;99.90;;;;;;5009489;28;20126;-84
2022/02/24 10:39:52;;;;;;;23.65;8.10;;;12.10;99.90;;;;;;5010564;28;20044;-84
2022/02/24 10:42:30;;;;;;;23.00;9.35;;;12.20;99.90;;;;;;5013505;28;20532;-83
2022/02/24 10:45:07;;;;;;;17.00;7.15;;;12.10;99.90;;;;;;5014632;28;20453;-84
2022/02/24 10:47:39;;;;;;;23.40;7.25;;;12.00;99.90;;;;;;5014911;28;20018;-84
2022/02/24 10:50:06;;;;;;;20.98;7.57;;;11.90;99.90;;;;;;5014394;28;20034;-84
2022/02/24 10:52:31;;;;;;;19.30;8.05;;;12.00;99.90;;;;;;5014125;28;20282;-82
2022/02/24 10:55:05;;;;;;;26.00;10.85;;;12.10;99.90;;;;;;5014436;28;20037;-83
2022/02/24 10:57:31;;;;;;;23.67;9.73;;;12.20;99.90;;;;;;5014133;28;20042;-83
2022/02/24 10:59:58;;;;;;;30.02;11.75;;;12.30;99.90;;;;;;4996124;28;20428;-83
2022/02/24 11:02:28;;;;;;;32.25;10.68;;;12.40;99.90;;;;;;5014448;28;20601;-83
2022/02/24 11:04:59;;;;;;;41.47;16.65;;;12.30;99.90;;;;;;5014209;28;20451;-83
2022/02/24 11:07:24;;;;;;;97.38;38.90;;;12.30;99.90;;;;;;5009819;28;20125;-83
2022/02/24 11:09:52;;;;;;;77.32;33.42;;;12.50;99.90;;;;;;5014797;28;20046;-83
2022/02/24 11:12:19;;;;;;;43.65;19.77;;;12.50;99.90;;;;;;4996507;28;20038;-83
2022/02/24 11:14:46;;;;;;;32.28;17.33;;;12.50;99.90;;;;;;5013885;28;20046;-83
2022/02/24 11:17:12;;;;;;;23.70;12.85;;;12.60;99.90;;;;;;5013615;28;20076;-83
2022/02/24 11:19:46;;;;;;;29.95;14.70;;;12.60;99.90;;;;;;5013437;28;20026;-83
2022/02/24 11:22:12;;;;;;;31.10;12.50;;;12.70;99.90;;;;;;5014238;28;20026;-83
2022/02/24 11:24:39;;;;;;;17.13;10.35;;;12.80;99.90;;;;;;5014154;28;20069;-83
2022/02/24 11:27:19;;;;;;;14.30;7.75;;;12.90;99.90;;;;;;5016057;28;20030;-83
2022/02/24 11:29:56;;;;;;;12.85;7.07;;;13.00;99.90;;;;;;5012970;28;20125;-83
2022/02/24 11:32:22;;;;;;;9.88;5.10;;;13.00;99.90;;;;;;5012452;28;20072;-82
2022/02/24 11:35:14;;;;;;;8.68;4.93;;;13.00;99.90;;;;;;5013326;28;20496;-83
2022/02/24 11:37:48;;;;;;;6.90;3.83;;;13.10;99.90;;;;;;5009666;28;20088;-83
2022/02/24 11:40:25;;;;;;;7.30;3.80;;;13.10;99.90;;;;;;5005311;28;20026;-83
2022/02/24 11:43:32;;;;;;;5.28;3.50;;;13.30;99.90;;;;;;5013745;28;20113;-83
2022/02/24 11:46:02;;;;;;;4.18;3.03;;;13.30;99.90;;;;;;5013273;28;20072;-83
2022/02/24 11:48:35;;;;;;;6.95;3.05;;;13.00;99.90;;;;;;5013686;28;20072;-83
2022/02/24 11:51:05;;;;;;;;;;;12.90;99.90;;;;;;5012117;28;20681;-83
2022/02/24 11:53:34;;;;;;;7.85;3.00;;;12.90;99.90;;;;;;5008075;28;19928;-83
2022/02/24 11:56:13;;;;;;;8.15;3.00;;;12.90;99.90;;;;;;5012706;28;20385;-83
2022/02/24 11:58:54;;;;;;;5.82;3.13;;;13.00;99.90;;;;;;5009399;28;20033;-83
2022/02/24 12:01:22;;;;;;;4.57;2.97;;;13.10;99.90;;;;;;5013029;28;20037;-83
2022/02/24 12:03:48;;;;;;;5.20;2.67;;;13.10;99.90;;;;;;5013434;28;20029;-83
2022/02/24 12:06:19;;;;;;;4.38;2.70;;;13.00;99.90;;;;;;5012677;28;20033;-82
2022/02/24 12:09:15;;;;;;;4.78;2.70;;;13.00;99.90;;;;;;5013827;28;20103;-84
2022/02/24 12:11:53;;;;;;;5.57;3.08;;;12.90;99.90;;;;;;5012341;28;20033;-82
2022/02/24 12:14:19;;;;;;;5.10;2.80;;;13.10;99.90;;;;;;5012866;28;20121;-84
2022/02/24 12:17:03;;;;;;;4.68;3.40;;;13.20;99.90;;;;;;5013780;28;20136;-86
2022/02/24 12:19:43;;;;;;;5.10;3.15;;;13.30;99.90;;;;;;5013377;28;20053;-85
2022/02/24 12:22:26;;;;;;;9.63;3.25;;;13.50;99.90;;;;;;5022292;28;20060;-87
2022/02/24 12:25:16;;;;;;;4.90;2.90;;;13.70;99.90;;;;;;5021750;28;20037;-86
2022/02/24 12:28:06;;;;;;;3.60;2.65;;;13.80;99.90;;;;;;5005210;28;20040;-87
2022/02/24 12:30:41;;;;;;;6.13;3.28;;;14.10;99.90;;;;;;5014358;28;20032;-86
2022/02/24 12:33:16;;;;;;;5.35;2.60;;;15.00;99.90;;;;;;4996434;28;20052;-85
2022/02/24 12:35:45;;;;;;;4.50;2.70;;;16.00;99.90;;;;;;5014734;28;20061;-87
2022/02/24 12:38:18;;;;;;;7.72;2.80;;;17.20;99.90;;;;;;5014271;28;20068;-87
2022/02/24 12:40:49;;;;;;;7.85;2.85;;;18.20;99.90;;;;;;4995598;28;20485;-86
2022/02/24 12:43:21;;;;;;;3.85;2.45;;;18.40;99.90;;;;;;4996936;28;20556;-88
2022/02/24 12:45:51;;;;;;;5.43;2.53;;;18.40;99.00;;;;;;4996360;28;20022;-87
2022/02/24 12:48:18;;;;;;;7.65;2.80;;;18.70;97.10;;;;;;5011615;28;20570;-87
2022/02/24 12:50:47;;;;;;;3.78;2.60;;;19.20;94.30;;;;;;5014501;28;20038;-88
2022/02/24 12:53:17;;;;;;;6.95;2.97;;;19.10;89.40;;;;;;5015464;28;20026;-88
2022/02/24 12:55:51;;;;;;;10.10;3.22;;;19.10;89.70;;;;;;4998936;28;20022;-91
2022/02/24 12:58:21;;;;;;;5.65;2.65;;;19.70;84.40;;;;;;5021095;28;20060;-87
2022/02/24 13:00:49;;;;;;;6.82;2.92;;;20.90;73.20;;;;;;5023141;28;20025;-89
2022/02/24 13:03:16;;;;;;;4.30;2.50;;;21.60;68.00;;;;;;5024294;28;20026;-89
2022/02/24 13:05:54;;;;;;;6.85;2.40;;;21.90;57.50;;;;;;5009935;28;20022;-88
2022/02/24 13:11:24;;;;;;;8.32;2.78;;;22.30;52.00;;;;;;5028158;28;20052;-87
2022/02/24 13:14:01;;;;;;;3.67;2.55;;;21.00;67.30;;;;;;5027625;28;20042;-88
2022/02/24 13:16:30;;;;;;;4.97;2.55;;;20.30;62.30;;;;;;4998904;28;20061;-88
2022/02/24 13:19:01;;;;;;;6.68;2.53;;;19.50;64.80;;;;;;5028860;28;20026;-88
2022/02/24 13:22:01;;;;;;;3.25;2.00;;;18.40;66.70;;;;;;5016349;28;20061;-88
2022/02/24 13:24:37;;;;;;;4.47;2.00;;;18.10;71.00;;;;;;5017680;28;20165;-87
2022/02/24 13:27:05;;;;;;;7.28;2.65;;;17.80;65.90;;;;;;5017212;28;20029;-83
2022/02/24 13:29:32;;;;;;;3.40;1.67;;;17.70;65.90;;;;;;5011772;28;20049;-82
2022/02/24 13:32:26;;;;;;;10.05;2.10;;;17.60;61.60;;;;;;5011900;28;20388;-81
2022/02/24 13:34:58;;;;;;;3.20;1.58;;;18.60;60.10;;;;;;5011917;28;20131;-80
2022/02/24 13:37:32;;;;;;;2.53;1.48;;;19.70;53.70;;;;;;5006126;28;20400;-82
2022/02/24 13:40:12;;;;;;;2.35;1.17;;;19.40;51.40;;;;;;5011042;28;20021;-82
2022/02/24 13:42:39;;;;;;;2.92;1.10;;;18.60;52.40;;;;;;5011636;28;20164;-83
2022/02/24 13:45:17;;;;;;;3.63;1.10;;;19.70;51.00;;;;;;5012066;28;20385;-80
2022/02/24 13:47:59;;;;;;;2.75;1.17;;;20.60;48.30;;;;;;5011511;28;20030;-84
2022/02/24 13:50:42;;;;;;;2.45;1.20;;;19.80;46.60;;;;;;5010377;28;20033;-82
2022/02/24 13:53:14;;;;;;;1.92;1.60;;;18.80;46.30;;;;;;5009633;28;20444;-80
2022/02/24 13:55:50;;;;;;;1.87;1.10;;;19.70;47.00;;;;;;5011109;28;20034;-82
2022/02/24 13:58:16;;;;;;;1.73;0.90;;;19.80;45.90;;;;;;5011722;28;20782;-82
2022/02/24 14:00:43;;;;;;;5.28;1.35;;;19.60;45.50;;;;;;5009722;28;20065;-83
2022/02/24 14:03:14;;;;;;;1.73;1.08;;;19.80;45.40;;;;;;5011761;28;20484;-82
2022/02/24 14:05:40;;;;;;;1.23;0.80;;;19.00;45.60;;;;;;5011132;28;20550;-81
2022/02/24 14:08:06;;;;;;;1.67;0.88;;;17.90;47.20;;;;;;5011534;28;20033;-82
2022/02/24 14:10:31;;;;;;;0.80;0.70;;;17.50;47.00;;;;;;5011410;28;20153;-84
2022/02/24 14:13:03;;;;;;;3.03;1.15;;;17.30;48.00;;;;;;5011295;28;20084;-83
2022/02/24 14:15:29;;;;;;;1.53;0.90;;;16.70;47.60;;;;;;5010196;28;20050;-82
2022/02/24 14:17:58;;;;;;;0.70;0.70;;;16.20;48.00;;;;;;5010039;28;20053;-82
2022/02/24 14:20:25;;;;;;;1.38;0.77;;;16.00;46.60;;;;;;5010898;28;20116;-83
2022/02/24 14:22:53;;;;;;;1.58;0.90;;;16.00;48.00;;;;;;4993752;28;20030;-81